Time;durP1;ratioP1;P1;durP2;ratioP2;P2;SDS_P1;SDS_P2;PMS_P1;PMS_P2;Temp;Humidity;BMP_temperature;BMP_pressure;BME280_temperature;BME280_humidity;BME280_pressure;Samples;Min_cycle;Max_cycle;Signal;HPM_P1;HPM_P2
2023/05/21 00:01:09;;;;;;;8.80;6.97;;;16.30;58.20;;;;;;5050498;28;20079;-49
2023/05/21 00:03:40;;;;;;;10.63;8.18;;;16.30;58.50;;;;;;5029401;28;20090;-48
2023/05/21 00:06:12;;;;;;;10.82;8.27;;;16.20;58.30;;;;;;5047156;28;20048;-46
2023/05/21 00:08:41;;;;;;;9.77;8.18;;;16.20;58.50;;;;;;5030294;28;20775;-45
2023/05/21 00:11:08;;;;;;;8.65;7.75;;;16.20;58.40;;;;;;5042814;28;20151;-46
2023/05/21 00:13:37;;;;;;;8.93;7.50;;;16.20;58.60;;;;;;5033046;28;20044;-49
2023/05/21 00:16:09;;;;;;;10.20;8.98;;;16.20;58.50;;;;;;5044013;28;20060;-46
2023/05/21 00:18:39;;;;;;;9.85;8.63;;;16.20;58.60;;;;;;5029676;28;20111;-48
2023/05/21 00:21:11;;;;;;;9.83;8.27;;;16.20;59.00;;;;;;5043257;28;20040;-51
2023/05/21 00:23:38;;;;;;;8.88;7.97;;;16.10;58.90;;;;;;5049071;28;20048;-49
2023/05/21 00:26:05;;;;;;;9.73;8.05;;;16.10;58.50;;;;;;5036626;28;20068;-47
2023/05/21 00:28:31;;;;;;;10.13;9.02;;;16.10;58.60;;;;;;5030555;28;20600;-50
2023/05/21 00:30:58;;;;;;;9.77;8.85;;;16.10;58.50;;;;;;5032438;28;20095;-49
2023/05/21 00:33:25;;;;;;;9.98;8.75;;;16.10;58.50;;;;;;5017405;28;20137;-47
2023/05/21 00:35:52;;;;;;;8.27;7.47;;;16.00;58.50;;;;;;5019527;28;20090;-46
2023/05/21 00:38:18;;;;;;;10.65;8.88;;;16.00;58.50;;;;;;5030820;28;20041;-45
2023/05/21 00:40:50;;;;;;;9.68;8.38;;;16.00;58.60;;;;;;5049951;28;20683;-47
2023/05/21 00:43:17;;;;;;;10.15;7.82;;;16.00;58.60;;;;;;5017951;28;20042;-45
2023/05/21 00:45:52;;;;;;;9.98;8.48;;;16.00;58.80;;;;;;5035141;28;20033;-46
2023/05/21 00:48:22;;;;;;;11.77;8.38;;;15.90;58.70;;;;;;5048563;28;20041;-46
2023/05/21 00:50:52;;;;;;;9.73;7.78;;;15.90;58.80;;;;;;5046026;28;20135;-45
2023/05/21 00:53:20;;;;;;;9.15;8.20;;;15.90;58.70;;;;;;5013865;28;20091;-46
2023/05/21 00:55:52;;;;;;;8.70;7.70;;;15.90;58.70;;;;;;5016459;28;20073;-45
2023/05/21 00:58:21;;;;;;;9.32;7.95;;;15.80;58.90;;;;;;5028681;28;20053;-46
2023/05/21 01:00:49;;;;;;;8.45;7.57;;;15.80;58.80;;;;;;5031648;28;20524;-46
2023/05/21 01:03:25;;;;;;;8.90;7.97;;;15.80;58.90;;;;;;5040224;28;20132;-46
2023/05/21 01:05:59;;;;;;;8.98;7.57;;;15.70;58.90;;;;;;5037995;28;20119;-47
2023/05/21 01:08:28;;;;;;;9.20;8.18;;;15.70;58.90;;;;;;5032912;28;20060;-49
2023/05/21 01:11:05;;;;;;;8.82;7.82;;;15.70;59.00;;;;;;5023990;28;20133;-47
2023/05/21 01:13:36;;;;;;;9.85;7.88;;;15.60;59.00;;;;;;5045764;28;20103;-48
2023/05/21 01:16:08;;;;;;;9.00;7.63;;;15.60;59.20;;;;;;5031674;28;20037;-49
2023/05/21 01:18:37;;;;;;;9.25;8.25;;;15.60;59.20;;;;;;5028624;28;20036;-48
2023/05/21 01:21:10;;;;;;;9.27;7.57;;;15.60;59.50;;;;;;5038903;28;20049;-47
2023/05/21 01:23:36;;;;;;;8.85;8.00;;;15.60;59.50;;;;;;5029516;28;20036;-45
2023/05/21 01:26:03;;;;;;;9.43;8.43;;;15.50;59.60;;;;;;5015124;28;20509;-47
2023/05/21 01:28:31;;;;;;;8.77;7.88;;;15.50;59.70;;;;;;5046508;28;20048;-45
2023/05/21 01:31:10;;;;;;;8.88;7.88;;;15.50;59.80;;;;;;5031494;28;20068;-47
2023/05/21 01:33:48;;;;;;;10.95;8.50;;;15.60;60.20;;;;;;5016922;28;20129;-50
2023/05/21 01:36:24;;;;;;;8.43;7.55;;;15.50;60.20;;;;;;5026210;28;20045;-50
2023/05/21 01:39:15;;;;;;;8.57;7.75;;;15.50;60.30;;;;;;5034548;28;20114;-48
2023/05/21 01:41:44;;;;;;;9.85;8.02;;;15.60;60.90;;;;;;5016593;28;20050;-50
2023/05/21 01:44:13;;;;;;;8.27;7.38;;;15.50;60.10;;;;;;5024325;28;20053;-48
2023/05/21 01:46:42;;;;;;;9.23;7.95;;;15.50;60.20;;;;;;5052846;28;20045;-48
2023/05/21 01:49:10;;;;;;;10.50;7.93;;;15.50;60.20;;;;;;5031458;28;20053;-47
2023/05/21 01:51:39;;;;;;;8.73;7.78;;;15.50;60.40;;;;;;5037150;28;20132;-49
2023/05/21 01:54:14;;;;;;;9.00;8.07;;;15.50;60.50;;;;;;5047035;28;21028;-47
2023/05/21 01:56:44;;;;;;;14.35;8.13;;;15.50;60.60;;;;;;5041235;28;20083;-49
2023/05/21 01:59:16;;;;;;;8.50;7.22;;;15.50;60.70;;;;;;5033974;28;20047;-46
2023/05/21 02:01:45;;;;;;;8.20;7.40;;;15.50;60.70;;;;;;5017550;28;20041;-45
2023/05/21 02:04:12;;;;;;;8.07;6.90;;;15.50;60.80;;;;;;5021701;28;20107;-49
2023/05/21 02:06:41;;;;;;;8.48;7.57;;;15.50;60.70;;;;;;5032865;28;20079;-49
2023/05/21 02:09:11;;;;;;;7.85;7.10;;;15.50;60.80;;;;;;5029070;28;20468;-47
2023/05/21 02:11:40;;;;;;;8.43;7.47;;;15.50;61.00;;;;;;5051758;28;20049;-47
2023/05/21 02:14:09;;;;;;;9.23;7.30;;;15.50;60.90;;;;;;5033806;28;20147;-52
2023/05/21 02:16:41;;;;;;;9.35;6.80;;;15.60;61.00;;;;;;5041617;28;20083;-48
2023/05/21 02:19:09;;;;;;;8.55;7.65;;;15.50;61.10;;;;;;5033819;28;20087;-45
2023/05/21 02:21:39;;;;;;;8.68;7.00;;;15.60;61.30;;;;;;5033044;28;20048;-48
2023/05/21 02:24:05;;;;;;;8.90;7.43;;;15.60;61.40;;;;;;5030742;28;20132;-46
2023/05/21 02:26:32;;;;;;;8.88;7.78;;;15.60;61.40;;;;;;5035383;28;20113;-45
2023/05/21 02:28:59;;;;;;;9.00;7.35;;;15.60;61.40;;;;;;5033315;28;20569;-48
2023/05/21 02:31:32;;;;;;;7.78;6.80;;;15.60;61.40;;;;;;5033325;28;20163;-46
2023/05/21 02:34:08;;;;;;;10.63;9.10;;;15.60;61.50;;;;;;5019121;28;20100;-49
2023/05/21 02:36:40;;;;;;;7.72;6.93;;;15.60;61.80;;;;;;5029830;28;20472;-50
2023/05/21 02:39:09;;;;;;;9.73;7.93;;;15.60;61.80;;;;;;5033444;28;20090;-48
2023/05/21 02:41:36;;;;;;;8.55;7.72;;;15.60;62.00;;;;;;5032746;28;20103;-50
2023/05/21 02:44:06;;;;;;;9.30;7.82;;;15.60;62.20;;;;;;5016505;28;20072;-50
2023/05/21 02:46:35;;;;;;;9.63;8.63;;;15.70;62.80;;;;;;5014568;28;20034;-46
2023/05/21 02:49:02;;;;;;;9.70;7.47;;;15.70;62.60;;;;;;5038356;28;20043;-49
2023/05/21 02:51:29;;;;;;;10.98;7.85;;;15.70;62.60;;;;;;5021524;28;20041;-47
2023/05/21 02:53:58;;;;;;;10.27;8.63;;;15.70;62.60;;;;;;5016572;28;20176;-50
2023/05/21 02:56:30;;;;;;;8.65;7.75;;;15.80;62.80;;;;;;5031939;28;20060;-49
2023/05/21 02:59:06;;;;;;;8.27;7.28;;;15.80;62.80;;;;;;5034760;28;20045;-50
2023/05/21 03:01:41;;;;;;;9.68;7.85;;;15.80;62.80;;;;;;5033260;28;20037;-48
2023/05/21 03:04:12;;;;;;;8.60;7.78;;;15.90;63.10;;;;;;5033569;28;20052;-48
2023/05/21 03:06:39;;;;;;;7.97;7.18;;;15.90;62.90;;;;;;5023379;28;20475;-51
2023/05/21 03:09:10;;;;;;;8.43;7.30;;;16.00;62.90;;;;;;5011579;28;20128;-46
2023/05/21 03:11:41;;;;;;;7.60;6.90;;;15.90;63.10;;;;;;5049939;28;20041;-48
2023/05/21 03:14:08;;;;;;;8.00;7.20;;;16.00;62.80;;;;;;5032469;28;20497;-48
2023/05/21 03:16:37;;;;;;;8.52;7.68;;;16.00;62.80;;;;;;5028177;28;20053;-46
2023/05/21 03:19:14;;;;;;;7.82;7.13;;;16.00;62.70;;;;;;5039496;28;20115;-48
2023/05/21 03:21:47;;;;;;;10.32;7.90;;;16.00;63.20;;;;;;5050546;28;20049;-48
2023/05/21 03:24:16;;;;;;;8.57;7.03;;;16.00;62.80;;;;;;5028710;28;20069;-48
2023/05/21 03:26:45;;;;;;;7.95;7.07;;;16.00;62.80;;;;;;5032405;28;20095;-48
2023/05/21 03:29:13;;;;;;;7.82;6.95;;;16.00;62.80;;;;;;5016383;28;20456;-46
2023/05/21 03:31:46;;;;;;;8.07;7.30;;;16.00;62.90;;;;;;5019202;28;20041;-49
2023/05/21 03:34:13;;;;;;;7.75;6.88;;;16.00;62.90;;;;;;5014006;28;20045;-46
2023/05/21 03:36:42;;;;;;;7.75;7.00;;;16.00;62.90;;;;;;5037006;28;20037;-48
2023/05/21 03:39:09;;;;;;;9.05;7.65;;;16.00;62.90;;;;;;5016764;28;20037;-49
2023/05/21 03:41:37;;;;;;;7.10;6.30;;;16.10;62.90;;;;;;5017628;28;20053;-49
2023/05/21 03:44:09;;;;;;;7.78;6.95;;;16.10;62.90;;;;;;5029133;28;20060;-47
2023/05/21 03:46:46;;;;;;;8.05;6.20;;;16.10;62.90;;;;;;5037363;28;20128;-46
2023/05/21 03:49:27;;;;;;;6.68;6.05;;;16.10;62.90;;;;;;5032565;28;20052;-47
2023/05/21 03:52:01;;;;;;;7.30;6.60;;;16.10;63.00;;;;;;5032234;28;20037;-47
2023/05/21 03:54:30;;;;;;;8.73;7.47;;;16.10;63.20;;;;;;5009692;28;20103;-45
2023/05/21 03:57:04;;;;;;;8.63;6.30;;;16.00;63.00;;;;;;5038164;28;20136;-51
2023/05/21 03:59:36;;;;;;;8.02;6.72;;;16.10;63.20;;;;;;5050290;28;20128;-45
2023/05/21 04:02:04;;;;;;;8.00;6.85;;;16.10;63.00;;;;;;5030551;28;20068;-49
2023/05/21 04:04:35;;;;;;;7.13;6.32;;;16.10;63.10;;;;;;5012772;28;20038;-48
2023/05/21 04:07:04;;;;;;;7.00;6.35;;;16.10;63.30;;;;;;5028093;28;20076;-49
2023/05/21 04:09:31;;;;;;;7.32;6.63;;;16.10;63.30;;;;;;5013835;28;20099;-46
2023/05/21 04:12:04;;;;;;;7.60;6.85;;;16.10;63.40;;;;;;5032408;28;20041;-47
2023/05/21 04:14:32;;;;;;;8.18;6.32;;;16.10;63.30;;;;;;5028964;28;20069;-50
2023/05/21 04:16:58;;;;;;;7.72;6.25;;;16.10;63.40;;;;;;5037462;28;20044;-48
2023/05/21 04:19:27;;;;;;;7.82;6.47;;;16.10;63.40;;;;;;5046890;28;20099;-46
2023/05/21 04:21:54;;;;;;;7.50;6.43;;;16.20;63.50;;;;;;5050369;28;20577;-47
2023/05/21 04:24:21;;;;;;;7.85;6.07;;;16.20;63.60;;;;;;5017365;28;20080;-49
2023/05/21 04:27:08;;;;;;;6.85;5.85;;;16.20;63.50;;;;;;5023890;28;20464;-48
2023/05/21 04:29:43;;;;;;;8.25;6.10;;;16.20;63.50;;;;;;5031029;28;20052;-45
2023/05/21 04:32:13;;;;;;;7.00;6.38;;;16.20;63.60;;;;;;5029796;28;20425;-47
2023/05/21 04:34:42;;;;;;;6.35;5.68;;;16.20;63.70;;;;;;5032084;28;20052;-45
2023/05/21 04:37:12;;;;;;;8.50;6.10;;;16.30;63.80;;;;;;5050834;28;20408;-45
2023/05/21 04:39:41;;;;;;;6.85;6.15;;;16.30;64.00;;;;;;5049595;28;20409;-47
2023/05/21 04:42:10;;;;;;;6.35;5.68;;;16.30;64.10;;;;;;5013269;28;20139;-45
2023/05/21 04:44:39;;;;;;;12.70;6.95;;;16.30;64.00;;;;;;5024382;28;20059;-45
2023/05/21 04:47:06;;;;;;;6.97;6.28;;;16.40;63.90;;;;;;5032842;28;20082;-46
2023/05/21 04:49:34;;;;;;;6.88;6.18;;;16.40;63.70;;;;;;5018852;28;20422;-51
2023/05/21 04:52:04;;;;;;;6.75;6.05;;;16.50;63.80;;;;;;5030212;28;20037;-48
2023/05/21 04:54:31;;;;;;;6.70;6.05;;;16.50;63.80;;;;;;5023379;28;20456;-48
2023/05/21 04:57:00;;;;;;;6.57;5.97;;;16.50;63.80;;;;;;5022220;28;20087;-47
2023/05/21 04:59:29;;;;;;;6.93;6.20;;;16.60;63.90;;;;;;5031970;28;20432;-51
2023/05/21 05:01:56;;;;;;;7.78;6.25;;;16.60;63.90;;;;;;5032463;28;20395;-47
2023/05/21 05:04:25;;;;;;;8.65;6.45;;;16.70;63.70;;;;;;5023153;28;20096;-48
2023/05/21 05:06:54;;;;;;;8.52;5.78;;;16.70;63.50;;;;;;5024462;28;20037;-47
2023/05/21 05:09:28;;;;;;;8.43;6.50;;;16.70;63.50;;;;;;5030449;28;20049;-49
2023/05/21 05:12:00;;;;;;;7.00;6.18;;;16.80;63.40;;;;;;5040563;28;20755;-48
2023/05/21 05:14:27;;;;;;;7.82;6.28;;;16.80;63.30;;;;;;5049261;28;20501;-50
2023/05/21 05:16:59;;;;;;;6.47;5.85;;;16.80;63.30;;;;;;5016554;28;20045;-49
2023/05/21 05:19:27;;;;;;;7.22;6.53;;;16.90;63.50;;;;;;5024533;28;20103;-50
2023/05/21 05:21:56;;;;;;;7.78;7.05;;;16.90;63.30;;;;;;5048574;28;20040;-50
2023/05/21 05:24:25;;;;;;;7.25;6.18;;;16.90;63.40;;;;;;5025928;28;20053;-49
2023/05/21 05:26:52;;;;;;;7.25;6.47;;;16.90;63.40;;;;;;5030479;28;20030;-47
2023/05/21 05:29:21;;;;;;;7.13;6.18;;;16.90;63.40;;;;;;5048540;28;20052;-47
2023/05/21 05:31:48;;;;;;;7.38;6.13;;;17.00;63.40;;;;;;5031343;28;20076;-47
2023/05/21 05:34:15;;;;;;;8.75;6.85;;;17.00;63.40;;;;;;5024559;28;20050;-47
2023/05/21 05:36:43;;;;;;;6.70;5.95;;;17.00;63.40;;;;;;5024518;28;20053;-46
2023/05/21 05:39:10;;;;;;;8.52;6.32;;;17.10;63.40;;;;;;5031175;28;20052;-45
2023/05/21 05:41:37;;;;;;;8.82;7.45;;;17.10;63.40;;;;;;5026474;28;20561;-50
2023/05/21 05:44:04;;;;;;;8.05;6.63;;;17.10;63.10;;;;;;5016315;28;20099;-49
2023/05/21 05:46:35;;;;;;;7.68;6.88;;;17.20;63.10;;;;;;5016932;28;20046;-45
2023/05/21 05:49:07;;;;;;;7.20;5.70;;;17.20;63.10;;;;;;5030988;28;20139;-49
2023/05/21 05:51:36;;;;;;;6.43;5.63;;;17.20;63.10;;;;;;5030729;28;20045;-48
2023/05/21 05:54:05;;;;;;;7.03;6.32;;;17.20;62.80;;;;;;5010442;28;20128;-45
2023/05/21 05:56:32;;;;;;;6.88;6.13;;;17.30;63.20;;;;;;5031168;28;20055;-49
2023/05/21 05:59:03;;;;;;;8.68;6.70;;;17.30;62.90;;;;;;5030759;28;20064;-46
2023/05/21 06:01:33;;;;;;;7.28;6.40;;;17.30;63.00;;;;;;5031401;28;20049;-50
2023/05/21 06:03:59;;;;;;;8.13;6.65;;;17.30;63.00;;;;;;5020066;28;20073;-47
2023/05/21 06:06:41;;;;;;;7.82;6.90;;;17.40;63.00;;;;;;5036865;28;20079;-51
2023/05/21 06:09:15;;;;;;;7.80;6.90;;;17.40;63.10;;;;;;5027931;28;20144;-51
2023/05/21 06:11:46;;;;;;;7.95;6.57;;;17.50;62.90;;;;;;5045743;28;20132;-50
2023/05/21 06:14:14;;;;;;;;;;;17.60;63.00;;;;;;5030607;28;20052;-46
2023/05/21 06:16:41;;;;;;;7.95;6.93;;;17.60;62.30;;;;;;5008951;28;19960;-47
2023/05/21 06:19:09;;;;;;;8.02;7.22;;;17.70;62.40;;;;;;5006103;28;20069;-48
2023/05/21 06:21:41;;;;;;;7.82;6.72;;;17.70;62.30;;;;;;5033887;28;20064;-50
2023/05/21 06:24:08;;;;;;;7.53;6.72;;;17.80;62.80;;;;;;5027665;28;20075;-49
2023/05/21 06:26:37;;;;;;;7.35;6.10;;;17.80;62.60;;;;;;5027674;28;20042;-49
2023/05/21 06:29:13;;;;;;;7.90;7.10;;;17.90;62.60;;;;;;5032977;28;20044;-45
2023/05/21 06:31:45;;;;;;;7.60;6.57;;;18.00;62.30;;;;;;5032234;28;20457;-48
2023/05/21 06:34:11;;;;;;;7.90;7.10;;;18.10;62.30;;;;;;5021415;28;20605;-46
2023/05/21 06:36:41;;;;;;;8.82;6.97;;;18.20;62.10;;;;;;5014633;28;20099;-46
2023/05/21 06:39:07;;;;;;;7.80;7.00;;;18.30;62.00;;;;;;5035015;28;20037;-50
2023/05/21 06:41:34;;;;;;;7.80;6.28;;;18.40;62.00;;;;;;5013065;28;20057;-46
2023/05/21 06:44:18;;;;;;;7.43;6.63;;;18.40;61.80;;;;;;5017266;28;20493;-51
2023/05/21 06:47:00;;;;;;;7.40;6.70;;;18.50;61.50;;;;;;5024228;28;20057;-51
2023/05/21 06:49:27;;;;;;;8.82;6.82;;;18.60;60.90;;;;;;5035633;28;20037;-47
2023/05/21 06:51:54;;;;;;;8.68;6.70;;;18.60;60.80;;;;;;5020725;28;20045;-49
2023/05/21 06:54:20;;;;;;;7.88;7.07;;;18.70;60.70;;;;;;5017647;28;20136;-50
2023/05/21 06:56:51;;;;;;;8.43;6.70;;;18.70;60.60;;;;;;5030174;28;20055;-48
2023/05/21 06:59:17;;;;;;;9.02;8.15;;;18.70;60.50;;;;;;5030530;28;20041;-48
2023/05/21 07:01:44;;;;;;;8.35;7.05;;;18.80;60.50;;;;;;5045590;28;20091;-49
2023/05/21 07:04:14;;;;;;;10.15;6.82;;;18.80;60.50;;;;;;5029401;28;20125;-46
2023/05/21 07:06:42;;;;;;;7.60;6.82;;;18.80;60.20;;;;;;5017140;28;20498;-47
2023/05/21 07:09:10;;;;;;;8.23;7.43;;;18.80;60.30;;;;;;5029272;28;20445;-49
2023/05/21 07:11:37;;;;;;;8.55;7.15;;;18.90;60.20;;;;;;5008517;28;20056;-46
2023/05/21 07:14:07;;;;;;;9.00;7.45;;;18.90;60.00;;;;;;5041194;28;20075;-49
2023/05/21 07:16:35;;;;;;;9.38;7.68;;;19.00;60.30;;;;;;5046512;28;20110;-50
2023/05/21 07:19:02;;;;;;;7.95;7.15;;;19.00;60.30;;;;;;5015968;28;20426;-48
2023/05/21 07:21:29;;;;;;;9.13;7.78;;;19.10;60.20;;;;;;5003270;28;20048;-46
2023/05/21 07:23:56;;;;;;;8.13;7.38;;;19.10;60.10;;;;;;4999217;28;20041;-51
2023/05/21 07:26:22;;;;;;;9.35;7.43;;;19.10;60.00;;;;;;4997962;28;20046;-49
2023/05/21 07:28:49;;;;;;;8.30;7.50;;;19.20;60.20;;;;;;5030843;28;20536;-48
2023/05/21 07:31:16;;;;;;;8.73;7.22;;;19.20;60.00;;;;;;5046758;28;20072;-47
2023/05/21 07:33:46;;;;;;;8.25;7.45;;;19.20;59.80;;;;;;5001419;28;20173;-48
2023/05/21 07:36:17;;;;;;;8.02;7.22;;;19.30;59.70;;;;;;5018080;28;20041;-50
2023/05/21 07:38:47;;;;;;;8.00;7.20;;;19.20;59.70;;;;;;4998723;28;20067;-49
2023/05/21 07:41:14;;;;;;;8.95;7.38;;;19.30;59.70;;;;;;5032484;28;20516;-47
2023/05/21 07:43:44;;;;;;;9.68;7.60;;;19.30;59.90;;;;;;5048849;28;20671;-46
2023/05/21 07:46:13;;;;;;;11.63;8.95;;;19.30;60.60;;;;;;5015047;28;20040;-50
2023/05/21 07:48:42;;;;;;;10.52;8.38;;;19.30;59.90;;;;;;5029705;28;20079;-49
2023/05/21 07:51:10;;;;;;;9.02;8.10;;;19.30;59.90;;;;;;5032048;28;20399;-49
2023/05/21 07:53:37;;;;;;;9.05;8.10;;;19.30;59.70;;;;;;5010963;28;20464;-47
2023/05/21 07:56:07;;;;;;;8.60;7.70;;;19.20;59.90;;;;;;5024342;28;20147;-47
2023/05/21 07:58:34;;;;;;;9.18;8.25;;;19.30;60.10;;;;;;5040627;28;20036;-47
2023/05/21 08:01:01;;;;;;;9.23;8.23;;;19.20;60.00;;;;;;5030946;28;20104;-49
2023/05/21 08:03:29;;;;;;;9.15;8.18;;;19.30;59.90;;;;;;5016741;28;20045;-48
2023/05/21 08:05:56;;;;;;;9.88;8.32;;;19.20;59.90;;;;;;5026223;28;20565;-45
2023/05/21 08:08:24;;;;;;;9.77;8.77;;;19.30;60.10;;;;;;5024351;28;20106;-46
2023/05/21 08:10:54;;;;;;;9.05;7.70;;;19.30;60.30;;;;;;5031234;28;20140;-49
2023/05/21 08:13:23;;;;;;;11.82;8.25;;;19.30;60.50;;;;;;5017333;28;20049;-47
2023/05/21 08:15:51;;;;;;;9.23;8.32;;;19.30;60.00;;;;;;5043837;28;20044;-51
2023/05/21 08:18:22;;;;;;;8.88;8.07;;;19.40;60.00;;;;;;5030436;28;20589;-49
2023/05/21 08:20:50;;;;;;;9.93;8.73;;;19.40;60.40;;;;;;5020401;28;20168;-46
2023/05/21 08:23:18;;;;;;;10.15;8.70;;;19.40;60.40;;;;;;5006726;28;20061;-48
2023/05/21 08:25:49;;;;;;;10.95;9.88;;;19.40;60.20;;;;;;5022455;28;20052;-47
2023/05/21 08:28:16;;;;;;;11.45;9.80;;;19.50;60.00;;;;;;5040307;28;20059;-48
2023/05/21 08:30:43;;;;;;;10.35;9.07;;;19.50;59.80;;;;;;5030684;28;20041;-50
2023/05/21 08:33:13;;;;;;;10.30;9.32;;;19.50;60.10;;;;;;5012705;28;20044;-50
2023/05/21 08:35:49;;;;;;;10.60;9.20;;;19.60;60.30;;;;;;5032438;28;20095;-50
2023/05/21 08:38:31;;;;;;;10.35;9.18;;;19.70;60.40;;;;;;5029328;28;20060;-48
2023/05/21 08:41:12;;;;;;;10.38;9.20;;;19.70;60.20;;;;;;5025582;28;20052;-48
2023/05/21 08:43:46;;;;;;;10.00;8.95;;;19.80;60.10;;;;;;5009601;28;20060;-47
2023/05/21 08:46:20;;;;;;;12.35;9.82;;;19.80;60.10;;;;;;5025924;28;20037;-47
2023/05/21 08:48:47;;;;;;;10.98;9.90;;;19.90;59.90;;;;;;5049526;28;20041;-47
2023/05/21 08:51:21;;;;;;;11.70;9.73;;;19.90;59.70;;;;;;5031224;28;20048;-48
2023/05/21 08:53:50;;;;;;;12.20;9.95;;;20.00;59.40;;;;;;5031470;28;20075;-50
2023/05/21 08:56:27;;;;;;;12.52;10.18;;;20.10;59.30;;;;;;5020853;28;20445;-50
2023/05/21 08:58:57;;;;;;;10.80;9.15;;;20.10;59.10;;;;;;5044567;28;20045;-46
2023/05/21 09:01:33;;;;;;;13.23;9.75;;;20.10;59.50;;;;;;5016283;28;20052;-49
2023/05/21 09:04:15;;;;;;;12.65;10.30;;;20.20;59.50;;;;;;5019813;28;20037;-47
2023/05/21 09:06:50;;;;;;;10.50;9.40;;;20.20;59.60;;;;;;5030193;28;20037;-50
2023/05/21 09:09:32;;;;;;;10.35;8.70;;;20.30;59.60;;;;;;5004440;28;20045;-48
2023/05/21 09:12:00;;;;;;;9.98;8.98;;;20.40;59.50;;;;;;5016400;28;20041;-46
2023/05/21 09:14:28;;;;;;;10.85;9.70;;;20.40;59.30;;;;;;5014277;28;20037;-52
2023/05/21 09:17:06;;;;;;;12.00;10.43;;;20.50;59.30;;;;;;5019611;28;20778;-49
2023/05/21 09:19:34;;;;;;;12.15;10.07;;;20.60;59.20;;;;;;5008769;28;20038;-50
2023/05/21 09:22:02;;;;;;;10.38;9.27;;;20.70;59.20;;;;;;5011489;28;20075;-46
2023/05/21 09:24:31;;;;;;;11.57;9.52;;;20.80;59.40;;;;;;5006141;28;20543;-48
2023/05/21 09:27:05;;;;;;;10.13;9.02;;;20.90;58.70;;;;;;5023342;28;20029;-49
2023/05/21 09:29:33;;;;;;;10.93;9.75;;;21.00;58.70;;;;;;5037377;28;20036;-47
2023/05/21 09:32:06;;;;;;;12.50;10.25;;;21.10;58.60;;;;;;5025965;28;20571;-47
2023/05/21 09:34:35;;;;;;;10.13;9.13;;;21.20;58.50;;;;;;5015161;28;20048;-49
2023/05/21 09:37:02;;;;;;;11.57;9.63;;;21.40;58.60;;;;;;5028742;28;20744;-50
2023/05/21 09:39:34;;;;;;;10.98;9.85;;;21.50;58.30;;;;;;5029933;28;20068;-48
2023/05/21 09:42:03;;;;;;;10.25;9.25;;;21.70;58.10;;;;;;5009014;28;20103;-49
2023/05/21 09:44:31;;;;;;;11.23;10.05;;;21.80;57.50;;;;;;5027093;28;20486;-49
2023/05/21 09:46:58;;;;;;;13.25;11.77;;;21.90;57.50;;;;;;5030324;28;20049;-50
2023/05/21 09:49:25;;;;;;;12.23;10.73;;;22.00;56.20;;;;;;5026718;28;20132;-48
2023/05/21 09:51:57;;;;;;;10.82;9.20;;;22.10;56.60;;;;;;5019889;28;20060;-47
2023/05/21 09:54:29;;;;;;;11.15;10.07;;;22.20;56.40;;;;;;5042695;28;20042;-47
2023/05/21 09:56:56;;;;;;;10.23;9.13;;;22.30;56.60;;;;;;5029354;28;20107;-49
2023/05/21 09:59:34;;;;;;;13.80;10.13;;;22.40;56.40;;;;;;5045964;28;20037;-46
2023/05/21 10:02:01;;;;;;;12.43;10.15;;;22.50;55.90;;;;;;5029690;28;20061;-49
2023/05/21 10:04:30;;;;;;;11.57;9.38;;;22.60;55.90;;;;;;5037801;28;20099;-47
2023/05/21 10:06:58;;;;;;;11.73;10.60;;;22.70;56.00;;;;;;5035194;28;20095;-47
2023/05/21 10:09:27;;;;;;;10.15;9.23;;;22.80;56.60;;;;;;5050367;28;20132;-47
2023/05/21 10:11:53;;;;;;;10.88;9.80;;;22.90;56.60;;;;;;5031838;28;20042;-46
2023/05/21 10:14:24;;;;;;;11.68;8.80;;;23.10;55.80;;;;;;5048379;28;20045;-49
2023/05/21 10:16:53;;;;;;;11.00;9.80;;;23.20;55.50;;;;;;5051405;28;20112;-50
2023/05/21 10:19:22;;;;;;;10.45;9.45;;;23.20;54.80;;;;;;5031955;28;20548;-45
2023/05/21 10:21:52;;;;;;;13.25;9.88;;;23.30;54.70;;;;;;5043833;28;20045;-46
2023/05/21 10:24:19;;;;;;;11.18;10.07;;;23.40;54.20;;;;;;5046217;28;20034;-50
2023/05/21 10:26:46;;;;;;;11.55;10.35;;;23.40;54.60;;;;;;5029850;28;20063;-51
2023/05/21 10:29:14;;;;;;;11.93;10.18;;;23.40;55.20;;;;;;5049229;28;20041;-50
2023/05/21 10:31:48;;;;;;;11.43;10.18;;;23.50;54.80;;;;;;5040889;28;20124;-46
2023/05/21 10:34:16;;;;;;;10.73;9.75;;;23.60;54.80;;;;;;5025576;28;20048;-47
2023/05/21 10:36:43;;;;;;;12.48;11.18;;;23.70;54.30;;;;;;5043233;28;20041;-50
2023/05/21 10:39:14;;;;;;;12.93;11.73;;;23.80;53.70;;;;;;5042188;28;20045;-50
2023/05/21 10:41:57;;;;;;;12.40;11.23;;;23.80;53.20;;;;;;5037704;28;20033;-49
2023/05/21 10:44:53;;;;;;;12.45;11.18;;;23.80;52.90;;;;;;5038617;28;20045;-51
2023/05/21 10:47:48;;;;;;;12.50;11.30;;;23.80;53.10;;;;;;5042111;28;20064;-50
2023/05/21 10:50:43;;;;;;;11.50;10.43;;;23.60;52.70;;;;;;5022818;28;20037;-49
2023/05/21 10:53:18;;;;;;;11.73;10.55;;;23.50;52.80;;;;;;5050452;28;20052;-50
2023/05/21 10:56:21;;;;;;;13.63;12.32;;;23.40;54.00;;;;;;5030228;28;20045;-50
2023/05/21 10:59:27;;;;;;;14.70;12.30;;;23.40;53.70;;;;;;5030930;28;20061;-50
2023/05/21 11:01:55;;;;;;;12.75;11.55;;;23.30;54.50;;;;;;5016701;28;20087;-50
2023/05/21 11:04:25;;;;;;;13.52;12.13;;;23.20;54.30;;;;;;5040827;28;20045;-49
2023/05/21 11:06:53;;;;;;;13.80;12.32;;;23.20;54.30;;;;;;5044041;28;20057;-50
2023/05/21 11:09:19;;;;;;;13.02;11.73;;;23.20;54.70;;;;;;5043765;28;20037;-53
2023/05/21 11:11:51;;;;;;;13.90;11.85;;;23.20;54.50;;;;;;5046141;28;20065;-50
2023/05/21 11:14:39;;;;;;;13.57;12.27;;;23.20;55.10;;;;;;5042636;28;20071;-48
2023/05/21 11:17:15;;;;;;;15.38;13.05;;;23.20;55.60;;;;;;5041563;28;20524;-51
2023/05/21 11:19:45;;;;;;;11.52;10.20;;;23.20;54.80;;;;;;5041330;28;20049;-50
2023/05/21 11:22:22;;;;;;;12.85;11.65;;;23.20;54.80;;;;;;5028689;28;20112;-49
2023/05/21 11:24:50;;;;;;;13.20;11.50;;;23.30;55.30;;;;;;5029795;28;20037;-49
2023/05/21 11:27:39;;;;;;;14.02;12.18;;;23.30;55.30;;;;;;5033313;28;20075;-49
2023/05/21 11:30:17;;;;;;;14.43;12.00;;;23.40;55.20;;;;;;5045480;28;20048;-49
2023/05/21 11:33:07;;;;;;;13.82;11.52;;;23.40;55.20;;;;;;5039411;28;20046;-48
2023/05/21 11:35:53;;;;;;;12.93;11.60;;;23.50;54.70;;;;;;5032523;28;20055;-49
2023/05/21 11:38:19;;;;;;;12.75;11.55;;;23.50;54.40;;;;;;5039579;28;20043;-47
2023/05/21 11:40:53;;;;;;;13.43;12.18;;;23.60;55.00;;;;;;5030504;28;20072;-50
2023/05/21 11:43:21;;;;;;;14.18;12.45;;;23.70;55.10;;;;;;5027533;28;20040;-48
2023/05/21 11:45:51;;;;;;;12.15;10.77;;;23.80;55.20;;;;;;5031039;28;20466;-50
2023/05/21 11:48:19;;;;;;;13.23;11.85;;;23.90;55.10;;;;;;5030509;28;20067;-47
2023/05/21 11:50:46;;;;;;;14.35;12.85;;;23.90;55.00;;;;;;5032402;28;20065;-48
2023/05/21 11:53:14;;;;;;;14.77;11.90;;;23.90;54.30;;;;;;5031642;28;20076;-48
2023/05/21 11:55:42;;;;;;;14.05;11.90;;;23.90;54.40;;;;;;5028400;28;20088;-50
2023/05/21 11:58:12;;;;;;;15.48;13.93;;;24.10;54.60;;;;;;5037978;28;20041;-50
2023/05/21 12:00:39;;;;;;;12.80;11.57;;;24.10;54.20;;;;;;5036383;28;20501;-47
2023/05/21 12:03:07;;;;;;;15.18;12.50;;;24.10;54.40;;;;;;5030444;28;21145;-47
2023/05/21 12:05:47;;;;;;;15.85;13.20;;;24.10;54.20;;;;;;5027812;28;20048;-49
2023/05/21 12:08:24;;;;;;;14.25;12.63;;;24.20;54.30;;;;;;5032335;28;20686;-46
2023/05/21 12:11:02;;;;;;;14.02;11.90;;;24.30;53.60;;;;;;5033281;28;20480;-50
2023/05/21 12:13:29;;;;;;;13.27;11.88;;;24.30;53.60;;;;;;5030074;28;20166;-50
2023/05/21 12:15:55;;;;;;;13.25;11.95;;;24.40;53.70;;;;;;5036569;28;20079;-51
2023/05/21 12:18:22;;;;;;;13.90;12.50;;;24.50;53.90;;;;;;5036424;28;20098;-48
2023/05/21 12:20:51;;;;;;;17.55;12.68;;;24.60;54.10;;;;;;5034744;28;20120;-49
2023/05/21 12:23:24;;;;;;;13.80;12.40;;;24.70;53.90;;;;;;5032503;28;20055;-50
2023/05/21 12:25:52;;;;;;;14.70;12.00;;;24.70;53.20;;;;;;5029239;28;20413;-49
2023/05/21 12:28:23;;;;;;;13.70;12.23;;;24.80;52.90;;;;;;5037015;28;20440;-53
2023/05/21 12:30:50;;;;;;;14.90;13.15;;;25.00;52.50;;;;;;5032891;28;20456;-53
2023/05/21 12:33:17;;;;;;;13.70;12.30;;;25.10;52.70;;;;;;5034269;28;20045;-51
2023/05/21 12:35:48;;;;;;;14.00;12.50;;;25.20;52.60;;;;;;5028961;28;20116;-51
2023/05/21 12:38:15;;;;;;;15.63;12.75;;;25.40;52.60;;;;;;5039015;28;20045;-50
2023/05/21 12:40:44;;;;;;;13.48;12.18;;;25.60;52.20;;;;;;5031712;28;20041;-49
2023/05/21 12:43:11;;;;;;;16.50;13.20;;;25.70;51.60;;;;;;5025850;28;20083;-50
2023/05/21 12:45:40;;;;;;;13.90;12.50;;;25.90;51.30;;;;;;5036429;28;20033;-49
2023/05/21 12:48:07;;;;;;;13.25;11.90;;;26.10;51.40;;;;;;5035313;28;20476;-51
2023/05/21 12:50:40;;;;;;;13.48;12.07;;;26.20;50.50;;;;;;5038341;28;20052;-51
2023/05/21 12:53:09;;;;;;;13.70;11.88;;;26.40;50.30;;;;;;5026256;28;20045;-51
2023/05/21 12:55:36;;;;;;;14.32;12.38;;;26.50;50.50;;;;;;5028554;28;20075;-50
2023/05/21 12:58:06;;;;;;;13.85;11.80;;;26.60;49.60;;;;;;5036920;28;20073;-50